Time;durP1;ratioP1;P1;durP2;ratioP2;P2;SDS_P1;SDS_P2;PMS_P1;PMS_P2;Temp;Humidity;BMP_temperature;BMP_pressure;BME280_temperature;BME280_humidity;BME280_pressure;Samples;Min_cycle;Max_cycle;Signal;HPM_P1;HPM_P2
2021/01/15 00:04:44;;;;;;;4.97;4.30;;;2.90;38.90;;;;;;10367071;28;20233;-69
2021/01/15 00:09:47;;;;;;;8.90;5.97;;;2.80;39.60;;;;;;10368066;28;20254;-69
2021/01/15 00:14:50;;;;;;;6.90;6.20;;;2.70;38.70;;;;;;10361437;28;20594;-69
2021/01/15 00:19:52;;;;;;;7.53;5.07;;;2.60;38.80;;;;;;10364872;28;20321;-69
2021/01/15 00:24:54;;;;;;;6.83;5.33;;;2.50;38.90;;;;;;10361576;28;20314;-69
2021/01/15 00:29:57;;;;;;;7.67;5.73;;;2.50;38.80;;;;;;10359021;28;20261;-68
2021/01/15 00:34:59;;;;;;;6.30;5.07;;;2.40;38.70;;;;;;10362680;28;20276;-69
2021/01/15 00:40:02;;;;;;;6.43;5.00;;;2.40;38.80;;;;;;10363831;28;20910;-69
2021/01/15 00:45:06;;;;;;;5.73;4.73;;;2.30;38.60;;;;;;10353237;28;20230;-69
2021/01/15 00:50:09;;;;;;;6.23;4.77;;;2.20;38.40;;;;;;10359407;28;20317;-69
2021/01/15 00:55:12;;;;;;;6.33;5.07;;;2.10;38.60;;;;;;10361346;28;20315;-69
2021/01/15 01:00:16;;;;;;;7.60;5.33;;;2.10;38.70;;;;;;10360292;28;20244;-69
2021/01/15 01:05:21;;;;;;;6.87;5.37;;;2.00;38.60;;;;;;10359738;28;20219;-69
2021/01/15 01:10:23;;;;;;;6.23;4.73;;;2.00;38.60;;;;;;10362798;28;20593;-68
2021/01/15 01:15:27;;;;;;;6.33;4.40;;;1.90;38.50;;;;;;10361549;28;21573;-69
2021/01/15 01:20:29;;;;;;;5.10;4.00;;;1.90;38.30;;;;;;10356223;28;20599;-68
2021/01/15 01:25:31;;;;;;;4.23;3.83;;;1.80;38.30;;;;;;10359001;28;20238;-68
2021/01/15 01:30:36;;;;;;;4.70;4.00;;;1.70;38.50;;;;;;10366872;28;20238;-68
2021/01/15 01:35:38;;;;;;;5.63;4.30;;;1.80;38.60;;;;;;10359366;28;20222;-69
2021/01/15 01:40:40;;;;;;;6.37;4.53;;;1.60;38.10;;;;;;10359008;28;20758;-68
2021/01/15 01:45:43;;;;;;;5.33;4.30;;;1.50;38.10;;;;;;10360286;28;20226;-69
2021/01/15 01:50:47;;;;;;;7.80;5.20;;;1.40;38.10;;;;;;10357837;28;20263;-68
2021/01/15 01:55:50;;;;;;;5.93;4.53;;;1.40;38.00;;;;;;10358404;28;20309;-69
2021/01/15 02:00:59;;;;;;;5.87;4.40;;;1.20;38.10;;;;;;10359641;28;20330;-71
2021/01/15 02:06:02;;;;;;;4.67;4.27;;;1.10;38.10;;;;;;10372421;28;20246;-71
2021/01/15 02:11:14;;;;;;;5.70;4.00;;;1.10;38.40;;;;;;10363391;28;20737;-69
2021/01/15 02:16:23;;;;;;;9.90;4.77;;;1.10;38.10;;;;;;10354737;28;20309;-69
2021/01/15 02:22:06;;;;;;;6.33;4.40;;;1.00;38.00;;;;;;10361383;28;20300;-69
2021/01/15 02:27:20;;;;;;;4.47;3.60;;;0.90;37.80;;;;;;10352765;28;20982;-69
2021/01/15 02:32:40;;;;;;;4.80;3.87;;;0.90;37.90;;;;;;10357516;28;20227;-69
2021/01/15 02:38:04;;;;;;;5.27;4.20;;;0.80;37.80;;;;;;10358918;28;20226;-69
2021/01/15 02:43:08;;;;;;;4.03;3.53;;;0.80;38.00;;;;;;10366499;28;20222;-68
2021/01/15 02:48:16;;;;;;;4.47;3.83;;;0.80;38.20;;;;;;10355777;28;20277;-69
2021/01/15 02:53:18;;;;;;;6.27;4.13;;;0.70;37.80;;;;;;10350621;28;20230;-69
2021/01/15 02:58:20;;;;;;;5.03;3.90;;;0.70;38.10;;;;;;10364729;28;20245;-68
2021/01/15 03:03:30;;;;;;;4.50;3.93;;;0.60;38.00;;;;;;10387105;22;20221;-69
2021/01/15 03:08:34;;;;;;;5.23;4.07;;;0.60;37.90;;;;;;10397089;28;20329;-69
2021/01/15 03:13:37;;;;;;;5.27;4.13;;;0.60;38.00;;;;;;10388840;28;20230;-69
2021/01/15 03:18:42;;;;;;;3.87;3.07;;;0.50;37.90;;;;;;10357439;28;20238;-69
2021/01/15 03:23:44;;;;;;;4.77;3.47;;;0.50;37.70;;;;;;10366165;28;20317;-68
2021/01/15 03:28:47;;;;;;;4.03;3.63;;;0.40;37.50;;;;;;10359547;28;20226;-69
2021/01/15 03:33:50;;;;;;;4.53;3.27;;;0.30;37.60;;;;;;10365802;28;20238;-69
2021/01/15 03:38:52;;;;;;;4.47;3.43;;;0.20;37.90;;;;;;10352967;28;20603;-69
2021/01/15 03:43:54;;;;;;;5.17;3.87;;;0.20;37.90;;;;;;10364670;28;20230;-69
2021/01/15 03:48:57;;;;;;;3.97;3.50;;;0.10;38.00;;;;;;10360950;28;20230;-69
2021/01/15 03:53:59;;;;;;;4.07;3.67;;;0.20;37.70;;;;;;10362387;28;20222;-69
2021/01/15 03:59:02;;;;;;;4.60;3.13;;;0.00;37.90;;;;;;10364966;28;20214;-70
2021/01/15 04:04:05;;;;;;;4.03;3.37;;;-0.10;37.90;;;;;;10348593;28;20737;-69
2021/01/15 04:09:07;;;;;;;4.20;3.10;;;0.00;38.10;;;;;;10364329;28;20603;-69
2021/01/15 04:14:09;;;;;;;5.37;3.27;;;-0.10;38.20;;;;;;10352970;28;20269;-69
2021/01/15 04:19:12;;;;;;;4.77;4.00;;;-0.10;38.10;;;;;;10361847;28;20222;-69
2021/01/15 04:24:15;;;;;;;7.40;4.73;;;-0.10;37.80;;;;;;10353650;28;20232;-69
2021/01/15 04:29:17;;;;;;;5.83;4.73;;;-0.20;37.80;;;;;;10358240;28;20236;-69
2021/01/15 04:34:20;;;;;;;7.00;4.20;;;-0.20;37.90;;;;;;10362773;28;20234;-69
2021/01/15 04:39:22;;;;;;;3.90;3.20;;;-0.20;37.70;;;;;;10351403;28;20226;-69
2021/01/15 04:44:25;;;;;;;6.53;3.97;;;-0.30;37.60;;;;;;10360817;28;20235;-69
2021/01/15 04:49:30;;;;;;;4.80;3.97;;;-0.40;37.70;;;;;;10363796;28;20264;-69
2021/01/15 04:54:39;;;;;;;4.80;3.60;;;-0.50;37.50;;;;;;10357496;28;20226;-69
2021/01/15 04:59:44;;;;;;;5.53;3.73;;;-0.60;37.70;;;;;;10365332;28;20222;-69
2021/01/15 05:04:47;;;;;;;4.47;3.53;;;-0.60;37.80;;;;;;10359415;28;20245;-69
2021/01/15 05:09:49;;;;;;;3.60;3.00;;;-0.70;38.10;;;;;;10356871;28;20337;-69
2021/01/15 05:14:52;;;;;;;4.20;3.30;;;-0.70;38.10;;;;;;10359707;28;20227;-69
2021/01/15 05:19:59;;;;;;;7.07;4.03;;;-0.70;38.10;;;;;;10368321;28;20706;-69
2021/01/15 05:25:01;;;;;;;5.23;3.83;;;-0.60;38.20;;;;;;10363540;28;20262;-69
2021/01/15 05:30:17;;;;;;;6.43;3.50;;;-0.60;38.20;;;;;;10360411;28;20313;-69
2021/01/15 05:35:21;;;;;;;4.93;4.03;;;-0.60;38.00;;;;;;10354083;28;20325;-69
2021/01/15 05:40:37;;;;;;;9.10;5.77;;;-0.60;38.10;;;;;;10359754;28;20242;-69
2021/01/15 05:45:40;;;;;;;14.33;10.27;;;-0.60;37.90;;;;;;10359505;28;20226;-69
2021/01/15 05:50:46;;;;;;;24.53;15.73;;;-0.60;38.20;;;;;;10358445;28;20253;-69
2021/01/15 05:55:55;;;;;;;21.23;14.77;;;-0.60;38.20;;;;;;10358377;28;20234;-69
2021/01/15 06:00:57;;;;;;;19.17;14.43;;;-0.60;37.80;;;;;;10358084;28;20610;-69
2021/01/15 06:06:01;;;;;;;12.33;9.27;;;-0.60;38.00;;;;;;10350965;28;20314;-69
2021/01/15 06:11:03;;;;;;;8.63;7.10;;;-0.50;37.90;;;;;;10363662;28;20225;-69
2021/01/15 06:16:06;;;;;;;10.37;5.73;;;-0.60;38.20;;;;;;10391837;28;20222;-69
2021/01/15 06:21:09;;;;;;;9.60;5.13;;;-0.60;38.00;;;;;;10398331;28;20308;-69
2021/01/15 06:26:11;;;;;;;7.63;5.10;;;-0.60;37.70;;;;;;10396332;28;20230;-69
2021/01/15 06:31:14;;;;;;;6.67;5.27;;;-0.70;37.50;;;;;;10391785;28;20309;-69
2021/01/15 06:36:18;;;;;;;7.70;5.20;;;-0.70;37.70;;;;;;10397405;28;20226;-69
2021/01/15 06:41:20;;;;;;;6.30;4.63;;;-0.70;37.60;;;;;;10394468;28;20715;-69
2021/01/15 06:46:34;;;;;;;5.80;4.30;;;-0.80;37.80;;;;;;10399976;28;20226;-69
2021/01/15 06:51:52;;;;;;;6.23;4.13;;;-0.80;37.50;;;;;;10402042;28;20593;-69
2021/01/15 06:57:12;;;;;;;8.10;4.73;;;-0.90;37.60;;;;;;10396347;28;20705;-69
2021/01/15 07:02:28;;;;;;;6.97;4.40;;;-0.90;37.50;;;;;;10393297;28;20616;-69
2021/01/15 07:07:32;;;;;;;15.10;9.20;;;-0.90;37.40;;;;;;10392943;28;20255;-69
2021/01/15 07:12:42;;;;;;;9.83;5.97;;;-0.90;37.50;;;;;;10398373;28;20233;-69
2021/01/15 07:17:46;;;;;;;12.50;6.53;;;-1.00;37.50;;;;;;10396618;28;20630;-69
2021/01/15 07:22:51;;;;;;;11.70;7.10;;;-1.00;37.80;;;;;;10395075;28;20313;-69
2021/01/15 07:27:54;;;;;;;11.80;6.77;;;-1.00;37.80;;;;;;10388673;28;20230;-69
2021/01/15 07:32:58;;;;;;;8.13;6.40;;;-1.00;37.80;;;;;;10400225;28;20313;-69
2021/01/15 07:38:12;;;;;;;11.17;6.80;;;-1.00;37.80;;;;;;10399343;28;20225;-70
2021/01/15 07:43:30;;;;;;;13.17;8.60;;;-1.00;37.80;;;;;;10395498;28;20226;-72
2021/01/15 07:48:38;;;;;;;13.60;8.83;;;-1.00;37.60;;;;;;10393689;28;20229;-72
2021/01/15 07:53:44;;;;;;;10.70;7.17;;;-1.20;37.70;;;;;;10382469;28;20232;-69
2021/01/15 07:58:48;;;;;;;23.73;12.10;;;-1.00;37.80;;;;;;10347695;28;20246;-72
2021/01/15 08:03:54;;;;;;;16.13;9.43;;;-1.10;37.70;;;;;;10356395;28;20313;-72
2021/01/15 08:08:59;;;;;;;16.77;9.20;;;-1.10;38.00;;;;;;10348219;28;20257;-72
2021/01/15 08:14:13;;;;;;;15.63;8.87;;;-1.00;38.20;;;;;;10358953;28;20254;-69
2021/01/15 08:19:16;;;;;;;15.63;9.17;;;-0.90;38.20;;;;;;10359382;28;20654;-68
2021/01/15 08:24:22;;;;;;;16.23;10.10;;;-0.90;38.50;;;;;;10363827;28;20699;-68
2021/01/15 08:29:25;;;;;;;17.17;10.37;;;-0.80;38.70;;;;;;10368169;28;20773;-68
2021/01/15 08:34:31;;;;;;;14.07;8.53;;;-0.70;38.80;;;;;;10364003;28;20611;-68
2021/01/15 08:39:45;;;;;;;15.13;10.20;;;-0.60;39.00;;;;;;10365518;28;20229;-68
2021/01/15 08:44:49;;;;;;;18.33;10.70;;;-0.50;39.20;;;;;;10360422;28;20226;-68
2021/01/15 08:49:53;;;;;;;17.37;10.53;;;-0.30;39.30;;;;;;10354585;28;20240;-71
2021/01/15 08:54:59;;;;;;;14.60;9.97;;;-0.20;39.40;;;;;;10363828;28;20237;-72
2021/01/15 09:00:08;;;;;;;13.63;9.90;;;-0.10;40.20;;;;;;10351119;28;20223;-71
2021/01/15 09:05:13;;;;;;;15.70;9.97;;;0.10;39.70;;;;;;10401047;22;20340;-77
2021/01/15 09:10:18;;;;;;;17.13;12.10;;;0.30;39.80;;;;;;10405482;28;20584;-78
2021/01/15 09:15:22;;;;;;;18.47;13.73;;;0.60;39.80;;;;;;10413802;28;20300;-79
2021/01/15 09:20:24;;;;;;;14.77;10.37;;;0.70;40.00;;;;;;10414517;28;20745;-78
2021/01/15 09:25:27;;;;;;;18.10;12.17;;;1.00;41.20;;;;;;10411451;28;20227;-75
2021/01/15 09:30:31;;;;;;;17.40;12.37;;;1.20;41.30;;;;;;10408162;28;20253;-76
2021/01/15 09:35:33;;;;;;;17.17;12.73;;;1.40;40.70;;;;;;10414237;28;20218;-77
2021/01/15 09:40:36;;;;;;;15.93;13.13;;;1.60;40.40;;;;;;10414868;28;20229;-77
2021/01/15 09:45:38;;;;;;;18.63;14.00;;;1.80;40.40;;;;;;10414036;28;20239;-81
2021/01/15 09:50:40;;;;;;;17.20;13.77;;;1.90;40.30;;;;;;10421324;28;20316;-77
2021/01/15 09:55:44;;;;;;;17.13;12.80;;;2.10;40.40;;;;;;10416353;28;20256;-77
2021/01/15 10:00:46;;;;;;;13.17;11.27;;;2.30;40.50;;;;;;10415733;28;20231;-78
2021/01/15 10:05:48;;;;;;;11.53;10.30;;;2.50;40.70;;;;;;10448246;28;20256;-77
2021/01/15 10:10:52;;;;;;;10.83;9.40;;;2.70;40.90;;;;;;10455549;28;20712;-75
2021/01/15 10:15:54;;;;;;;11.40;9.30;;;2.90;40.50;;;;;;10452540;28;20220;-75
2021/01/15 10:20:57;;;;;;;10.47;8.10;;;3.00;40.50;;;;;;10451845;28;20260;-74
2021/01/15 10:26:00;;;;;;;9.03;8.13;;;3.20;40.40;;;;;;10436902;28;20229;-75
2021/01/15 10:31:02;;;;;;;8.53;7.70;;;3.30;40.30;;;;;;10444735;28;20654;-74
2021/01/15 10:36:07;;;;;;;7.87;6.80;;;3.50;40.20;;;;;;10452095;28;20279;-75
2021/01/15 10:41:10;;;;;;;8.53;7.70;;;3.60;43.30;;;;;;10431653;28;20257;-76
2021/01/15 10:46:12;;;;;;;8.63;7.83;;;3.80;42.30;;;;;;10450928;28;20233;-75
2021/01/15 10:51:14;;;;;;;9.50;8.50;;;4.10;41.60;;;;;;10450538;28;20251;-75
2021/01/15 10:56:18;;;;;;;9.00;8.07;;;4.30;40.70;;;;;;10430538;28;20307;-76
2021/01/15 11:01:20;;;;;;;9.53;8.53;;;4.40;40.10;;;;;;10444850;28;20237;-76
2021/01/15 11:06:23;;;;;;;8.43;7.60;;;4.50;39.90;;;;;;10450113;28;20233;-78
2021/01/15 11:11:26;;;;;;;7.97;7.20;;;4.50;39.90;;;;;;10453639;28;20317;-78
2021/01/15 11:16:28;;;;;;;8.83;7.93;;;4.50;39.70;;;;;;10457078;28;20264;-77
2021/01/15 11:21:31;;;;;;;9.07;8.17;;;4.60;39.80;;;;;;10451947;28;20314;-77
2021/01/15 11:26:34;;;;;;;8.73;7.83;;;4.60;39.60;;;;;;10452886;28;20239;-78
2021/01/15 11:31:37;;;;;;;8.13;7.33;;;4.60;39.20;;;;;;10442470;28;20229;-76
2021/01/15 11:36:39;;;;;;;11.90;10.73;;;4.60;39.50;;;;;;10440744;28;20216;-81
2021/01/15 11:41:43;;;;;;;8.83;7.93;;;4.60;39.50;;;;;;10459352;28;20264;-78
2021/01/15 11:46:45;;;;;;;8.50;7.57;;;4.70;39.50;;;;;;10456056;28;20315;-77
2021/01/15 11:52:01;;;;;;;8.27;7.47;;;4.80;39.70;;;;;;10458337;28;20228;-77
2021/01/15 11:57:05;;;;;;;9.03;8.20;;;4.90;39.80;;;;;;10459378;28;20224;-77
2021/01/15 12:02:07;;;;;;;8.30;7.50;;;5.00;39.50;;;;;;10451776;28;20252;-76
2021/01/15 12:07:11;;;;;;;8.43;7.63;;;5.00;39.30;;;;;;10459839;28;20236;-76
2021/01/15 12:12:15;;;;;;;7.93;7.10;;;5.10;39.20;;;;;;10460803;28;20300;-76
2021/01/15 12:17:17;;;;;;;8.73;7.83;;;5.20;39.90;;;;;;10452388;28;20303;-74
2021/01/15 12:22:19;;;;;;;8.03;7.23;;;5.20;39.00;;;;;;10458655;28;20253;-77
2021/01/15 12:27:24;;;;;;;8.13;7.33;;;5.20;38.70;;;;;;10451838;28;20439;-76
2021/01/15 12:32:26;;;;;;;7.97;7.17;;;5.20;38.70;;;;;;10455337;28;20229;-74
2021/01/15 12:37:29;;;;;;;7.60;6.80;;;5.20;38.70;;;;;;10454349;28;20228;-78
2021/01/15 12:42:32;;;;;;;7.47;6.63;;;5.20;38.80;;;;;;10445868;28;20239;-79
2021/01/15 12:47:34;;;;;;;6.53;5.90;;;5.20;38.60;;;;;;10454416;28;20244;-74
2021/01/15 12:52:36;;;;;;;7.03;6.33;;;5.20;38.80;;;;;;10453973;28;20313;-75
2021/01/15 12:57:41;;;;;;;6.57;5.93;;;5.20;38.70;;;;;;10454327;28;20602;-75
2021/01/15 13:02:44;;;;;;;7.47;6.77;;;5.20;38.70;;;;;;10454253;28;20715;-76
2021/01/15 13:07:46;;;;;;;6.90;6.20;;;5.20;38.90;;;;;;10451434;28;20229;-77
2021/01/15 13:12:49;;;;;;;5.97;5.47;;;5.20;38.90;;;;;;10452556;28;20797;-75
2021/01/15 13:17:53;;;;;;;6.87;5.67;;;5.20;38.70;;;;;;10455237;28;20233;-78
2021/01/15 13:22:59;;;;;;;6.43;5.83;;;5.10;38.70;;;;;;10455908;28;20260;-76
2021/01/15 13:28:04;;;;;;;6.70;6.10;;;5.10;38.20;;;;;;10455501;28;20231;-77
2021/01/15 13:33:08;;;;;;;6.17;5.67;;;5.20;38.60;;;;;;10455199;28;20239;-78
2021/01/15 13:38:11;;;;;;;6.53;5.83;;;5.20;38.70;;;;;;10461520;28;20225;-80
2021/01/15 13:43:14;;;;;;;6.67;6.07;;;5.20;38.50;;;;;;10460079;28;20723;-78
2021/01/15 13:48:16;;;;;;;6.93;6.27;;;5.20;38.60;;;;;;10456234;28;20666;-77
2021/01/15 13:53:21;;;;;;;7.43;6.73;;;5.20;39.30;;;;;;10457896;28;20228;-77
2021/01/15 13:58:25;;;;;;;7.50;6.77;;;5.20;38.90;;;;;;10444347;28;20264;-76
2021/01/15 14:03:27;;;;;;;7.50;6.83;;;5.30;38.80;;;;;;10446004;28;20833;-75
2021/01/15 14:08:29;;;;;;;7.07;6.37;;;5.40;38.90;;;;;;10448443;28;20223;-75
2021/01/15 14:13:33;;;;;;;6.87;6.17;;;5.40;38.70;;;;;;10443706;28;20311;-75
2021/01/15 14:18:36;;;;;;;6.90;6.20;;;5.40;38.60;;;;;;10447183;28;20290;-74
2021/01/15 14:23:39;;;;;;;7.23;6.53;;;5.40;38.30;;;;;;10447596;28;20225;-74
2021/01/15 14:28:42;;;;;;;6.57;5.97;;;5.40;38.30;;;;;;10442771;28;20242;-78
2021/01/15 14:34:03;;;;;;;6.63;6.03;;;5.40;38.40;;;;;;10449070;28;20229;-76
2021/01/15 14:39:05;;;;;;;7.20;6.50;;;5.40;38.50;;;;;;10458384;28;20724;-76
2021/01/15 14:44:09;;;;;;;6.83;6.20;;;5.40;38.20;;;;;;10461505;28;20244;-78
2021/01/15 14:49:12;;;;;;;7.80;7.00;;;5.40;38.20;;;;;;10468365;28;20253;-76
2021/01/15 14:54:14;;;;;;;7.30;6.60;;;5.40;37.80;;;;;;10461631;28;20311;-78
2021/01/15 14:59:18;;;;;;;9.40;8.40;;;5.40;37.90;;;;;;10446420;28;20708;-79
2021/01/15 15:04:20;;;;;;;9.37;8.40;;;5.30;38.00;;;;;;10451366;28;20224;-77
2021/01/15 15:09:22;;;;;;;9.50;8.60;;;5.30;38.20;;;;;;10449175;28;20229;-77
2021/01/15 15:14:25;;;;;;;10.97;9.87;;;5.30;38.40;;;;;;10450596;28;20224;-77
2021/01/15 15:19:27;;;;;;;12.03;10.83;;;5.30;38.20;;;;;;10438145;28;20693;-77
2021/01/15 15:24:29;;;;;;;10.43;9.40;;;5.20;38.20;;;;;;10446515;28;20224;-75
2021/01/15 15:29:36;;;;;;;11.87;10.67;;;5.20;38.30;;;;;;10442558;28;20253;-75
2021/01/15 15:34:38;;;;;;;14.60;13.03;;;5.20;38.20;;;;;;10446882;28;20274;-74
2021/01/15 15:39:40;;;;;;;11.87;10.67;;;5.10;38.20;;;;;;10435681;28;20233;-75
2021/01/15 15:44:43;;;;;;;13.40;10.37;;;5.10;38.40;;;;;;10448532;28;20280;-77
2021/01/15 15:49:45;;;;;;;11.97;10.60;;;5.10;38.30;;;;;;10448838;28;20731;-75
2021/01/15 15:54:48;;;;;;;13.07;10.60;;;5.10;38.30;;;;;;10448373;28;20279;-75
2021/01/15 15:59:51;;;;;;;12.83;10.73;;;5.10;38.40;;;;;;10443116;28;20236;-75
2021/01/15 16:04:53;;;;;;;11.13;9.40;;;5.00;38.40;;;;;;10444549;28;20225;-73
2021/01/15 16:09:55;;;;;;;12.23;10.97;;;5.00;38.50;;;;;;10439046;28;20247;-75
2021/01/15 16:14:58;;;;;;;12.23;11.03;;;5.00;38.50;;;;;;10419138;22;20237;-72
2021/01/15 16:20:00;;;;;;;11.70;10.50;;;4.90;38.40;;;;;;10409600;28;20217;-72
2021/01/15 16:25:04;;;;;;;12.63;11.33;;;4.80;38.60;;;;;;10399998;28;20225;-71
2021/01/15 16:30:08;;;;;;;11.87;10.13;;;4.80;38.70;;;;;;10454625;22;20590;-76
2021/01/15 16:35:12;;;;;;;11.73;10.03;;;4.80;38.60;;;;;;10404520;28;20222;-76
2021/01/15 16:40:16;;;;;;;10.37;9.27;;;4.80;38.70;;;;;;10397911;28;20271;-77
2021/01/15 16:45:20;;;;;;;10.43;9.33;;;4.70;38.70;;;;;;10402947;28;20229;-77
2021/01/15 16:50:24;;;;;;;8.87;7.87;;;4.70;38.70;;;;;;10410819;28;20230;-78
2021/01/15 16:55:30;;;;;;;7.60;6.80;;;4.60;38.90;;;;;;10404971;28;20731;-77
2021/01/15 17:00:33;;;;;;;7.23;6.53;;;4.50;39.10;;;;;;10401281;28;20253;-79
2021/01/15 17:05:36;;;;;;;6.83;6.13;;;4.40;39.20;;;;;;10412241;28;20246;-79
2021/01/15 17:10:38;;;;;;;7.13;6.37;;;4.40;39.70;;;;;;10412029;28;20238;-78
2021/01/15 17:15:42;;;;;;;6.30;5.70;;;4.40;39.40;;;;;;10429485;28;20700;-79
2021/01/15 17:20:48;;;;;;;6.77;6.13;;;4.40;39.40;;;;;;10432254;28;20628;-78
2021/01/15 17:25:50;;;;;;;6.87;6.17;;;4.50;39.50;;;;;;10428429;28;20309;-79
2021/01/15 17:30:53;;;;;;;8.17;6.73;;;4.50;39.50;;;;;;10421631;28;20236;-79
2021/01/15 17:35:55;;;;;;;7.80;7.07;;;4.50;39.50;;;;;;10401769;28;20226;-79
2021/01/15 17:40:57;;;;;;;8.27;7.47;;;4.50;39.50;;;;;;10429127;28;20249;-79
2021/01/15 17:46:00;;;;;;;9.40;7.93;;;4.50;39.50;;;;;;10429389;28;20301;-79
2021/01/15 17:51:03;;;;;;;8.93;8.03;;;4.40;39.50;;;;;;10441982;28;20316;-79
2021/01/15 17:56:05;;;;;;;10.10;7.80;;;4.40;39.60;;;;;;10412855;28;20226;-78
2021/01/15 18:01:08;;;;;;;9.00;7.87;;;4.30;39.70;;;;;;10403786;28;20581;-78
2021/01/15 18:06:12;;;;;;;9.77;8.60;;;4.30;39.80;;;;;;10408574;28;20218;-78
2021/01/15 18:11:14;;;;;;;10.23;9.20;;;4.30;39.90;;;;;;10409806;28;20321;-78
2021/01/15 18:16:17;;;;;;;10.23;9.13;;;4.20;40.00;;;;;;10386491;28;20230;-79
2021/01/15 18:21:20;;;;;;;10.33;8.50;;;4.20;40.10;;;;;;10385516;28;20221;-80
2021/01/15 18:26:22;;;;;;;9.63;8.63;;;4.10;40.10;;;;;;10393484;28;20244;-80
2021/01/15 18:31:27;;;;;;;10.17;8.37;;;4.10;40.30;;;;;;10392038;28;20229;-80
2021/01/15 18:36:30;;;;;;;9.70;8.53;;;4.00;40.50;;;;;;10416185;28;20225;-81
2021/01/15 18:41:32;;;;;;;11.03;9.23;;;4.00;40.50;;;;;;10406481;28;20234;-80
2021/01/15 18:46:37;;;;;;;10.27;9.17;;;4.00;40.50;;;;;;10411132;28;20663;-81
2021/01/15 18:51:40;;;;;;;11.03;9.73;;;4.00;40.60;;;;;;10410351;28;20236;-81
2021/01/15 18:56:43;;;;;;;10.27;9.17;;;4.00;40.50;;;;;;10422090;28;20646;-80
2021/01/15 19:01:46;;;;;;;9.97;8.90;;;4.00;40.50;;;;;;10411530;28;20234;-81
2021/01/15 19:06:49;;;;;;;10.00;9.00;;;4.10;40.70;;;;;;10419809;28;20251;-81
2021/01/15 19:11:51;;;;;;;10.10;8.93;;;4.00;40.50;;;;;;10422206;28;20264;-81
2021/01/15 19:16:55;;;;;;;9.10;8.17;;;4.00;40.50;;;;;;10419148;28;20305;-80
2021/01/15 19:21:57;;;;;;;8.63;7.73;;;4.00;40.50;;;;;;10436907;28;20256;-81
2021/01/15 19:26:59;;;;;;;9.30;8.30;;;4.00;40.40;;;;;;10427900;28;20238;-81
2021/01/15 19:32:03;;;;;;;11.67;8.80;;;4.00;40.50;;;;;;10431292;28;20813;-81
2021/01/15 19:37:06;;;;;;;10.10;8.50;;;4.00;40.50;;;;;;10427284;28;20306;-81
2021/01/15 19:42:09;;;;;;;10.07;8.87;;;4.10;40.60;;;;;;10421055;28;20964;-80
2021/01/15 19:47:12;;;;;;;8.97;8.07;;;4.10;40.50;;;;;;10423721;28;20662;-80
2021/01/15 19:52:14;;;;;;;9.43;8.53;;;4.00;40.50;;;;;;10430204;28;20262;-80
2021/01/15 19:57:17;;;;;;;9.80;8.30;;;4.00;40.50;;;;;;10420782;28;20712;-81
2021/01/15 20:02:20;;;;;;;11.90;8.87;;;4.00;40.70;;;;;;10411675;28;20241;-79
2021/01/15 20:07:22;;;;;;;9.50;7.83;;;4.00;40.60;;;;;;10399440;28;20229;-79
2021/01/15 20:12:25;;;;;;;11.07;9.17;;;4.00;40.70;;;;;;10424381;28;20233;-79
2021/01/15 20:17:28;;;;;;;10.00;9.00;;;3.90;40.70;;;;;;10455684;28;20229;-79
2021/01/15 20:22:31;;;;;;;10.73;9.63;;;3.90;40.70;;;;;;10436448;28;20447;-79
2021/01/15 20:27:34;;;;;;;9.63;8.73;;;3.80;40.60;;;;;;10423193;28;20572;-79
2021/01/15 20:32:40;;;;;;;10.17;8.93;;;3.80;40.70;;;;;;10450628;28;20232;-79
2021/01/15 20:37:45;;;;;;;9.47;8.47;;;3.80;40.70;;;;;;10436487;28;20653;-79
2021/01/15 20:43:07;;;;;;;9.43;8.40;;;3.70;40.70;;;;;;10421778;28;20226;-79
2021/01/15 20:48:11;;;;;;;10.57;9.47;;;3.70;40.80;;;;;;10413378;28;20260;-79
2021/01/15 20:53:17;;;;;;;10.33;9.30;;;3.60;40.80;;;;;;10407872;28;20636;-79
2021/01/15 20:58:19;;;;;;;9.83;8.83;;;3.70;40.80;;;;;;10433405;28;20233;-78
2021/01/15 21:03:22;;;;;;;9.57;8.63;;;3.70;40.80;;;;;;10411933;28;20268;-78
2021/01/15 21:08:25;;;;;;;9.27;8.37;;;3.70;40.90;;;;;;10422596;28;20249;-79
2021/01/15 21:13:27;;;;;;;9.60;8.60;;;3.70;40.70;;;;;;10404316;28;20541;-79
2021/01/15 21:18:30;;;;;;;8.50;7.70;;;3.70;40.60;;;;;;10406617;28;21035;-79
2021/01/15 21:23:33;;;;;;;9.23;8.23;;;3.70;40.50;;;;;;10433342;28;20733;-79
2021/01/15 21:28:35;;;;;;;9.53;8.43;;;3.70;40.60;;;;;;10419159;28;20320;-79
2021/01/15 21:33:41;;;;;;;8.93;8.03;;;3.70;40.60;;;;;;10402591;28;20340;-79
2021/01/15 21:38:44;;;;;;;10.17;9.17;;;3.80;40.70;;;;;;10427128;28;20260;-79
2021/01/15 21:43:47;;;;;;;9.67;8.33;;;3.80;40.60;;;;;;10422256;28;20578;-79
2021/01/15 21:48:51;;;;;;;9.53;7.80;;;3.90;40.60;;;;;;10431085;28;20243;-79
2021/01/15 21:53:53;;;;;;;9.33;8.43;;;3.90;40.60;;;;;;10426250;28;20234;-79
2021/01/15 21:58:56;;;;;;;8.90;8.00;;;3.90;40.40;;;;;;10417011;28;20309;-79
2021/01/15 22:03:59;;;;;;;9.17;8.17;;;3.90;40.30;;;;;;10423597;28;20229;-79
2021/01/15 22:09:01;;;;;;;8.97;8.07;;;3.90;40.30;;;;;;10426821;28;20265;-79
2021/01/15 22:14:04;;;;;;;8.97;8.07;;;3.90;40.10;;;;;;10425706;28;20265;-78
2021/01/15 22:19:08;;;;;;;9.07;8.17;;;3.90;40.20;;;;;;10414767;28;20241;-78
2021/01/15 22:24:11;;;;;;;9.73;8.50;;;3.80;40.20;;;;;;10435499;28;20924;-78
2021/01/15 22:29:24;;;;;;;9.93;8.93;;;3.80;40.30;;;;;;10416389;28;20229;-79
2021/01/15 22:34:28;;;;;;;8.57;7.70;;;3.70;40.30;;;;;;10432213;28;20274;-78
2021/01/15 22:39:30;;;;;;;9.53;8.03;;;3.70;40.30;;;;;;10415947;28;20925;-78
2021/01/15 22:44:33;;;;;;;9.70;8.23;;;3.70;40.40;;;;;;10431393;28;20363;-78
2021/01/15 22:49:36;;;;;;;9.30;8.40;;;3.60;40.60;;;;;;10429575;28;20312;-78
2021/01/15 22:54:38;;;;;;;8.73;7.73;;;3.60;40.50;;;;;;10433255;28;20289;-78
2021/01/15 22:59:40;;;;;;;10.50;9.10;;;3.60;40.50;;;;;;10437154;28;20222;-78
2021/01/15 23:04:45;;;;;;;8.17;7.47;;;3.60;40.60;;;;;;10430797;28;20256;-79
2021/01/15 23:09:47;;;;;;;9.47;8.47;;;3.60;41.40;;;;;;10420114;28;20226;-78
2021/01/15 23:14:49;;;;;;;10.57;8.60;;;3.60;40.70;;;;;;10408798;28;20313;-78
2021/01/15 23:19:52;;;;;;;9.90;8.90;;;3.60;40.70;;;;;;10427840;28;20373;-79
2021/01/15 23:24:54;;;;;;;9.87;8.87;;;3.60;40.70;;;;;;10419378;28;20276;-78
2021/01/15 23:29:56;;;;;;;10.63;9.53;;;3.70;40.60;;;;;;10427695;28;20237;-78
2021/01/15 23:35:00;;;;;;;10.73;9.63;;;3.70;40.50;;;;;;10415130;28;20236;-78
2021/01/15 23:40:05;;;;;;;9.23;8.37;;;3.60;40.40;;;;;;10409042;28;20275;-78
2021/01/15 23:45:08;;;;;;;9.80;8.80;;;3.50;40.50;;;;;;10392473;28;20317;-78
2021/01/15 23:50:12;;;;;;;10.97;9.37;;;3.50;40.70;;;;;;10448375;28;20316;-79
2021/01/15 23:55:14;;;;;;;10.17;8.80;;;3.50;40.70;;;;;;10415740;28;20257;-78
